KELN

Bowers Field Airport

Ellensburg, Washington, USA
METAR KELN 230253Z AUTO 10005KT 10SM CLR 26/10 A2979 RMK AO2 SLP077 T02610100 56008
Observed Flight Rules
May-23 @ 02:53 UTC (28 minutes ago) Visual Flight Rules
Wind Visibility Clouds
100° at 5 knots 10 miles
  • Clear skies
Temperatures Readings
Current 26°C / 79°F
Dewpoint 10°C / 50°F
Humidity 37%
Altimeter 29.79" Hg
Pressure 1007.7 hPa
Elevation 519
METAR KELN 230253Z AUTO 10005KT 10SM CLR 26/10 A2979 RMK AO2 SLP077 T02610100 56008
Observed Flight Rules
May-23 @ 02:53 UTC
(28 minutes ago)
VFR
Wind Visibility
100° at 5 knots 10 miles
Clouds
  • Clear skies
Temperature Dewpoint
26°C / 79°F 10°C / 50°F
Humidity Altimeter Pressure
37% 29.79" Hg 1007.7 hPa